createdAt,value
2023-05-15T00:01:12.966Z,3.40
2023-05-15T00:03:39.452Z,3.75
2023-05-15T00:06:06.044Z,3.83
2023-05-15T00:08:32.437Z,3.78
2023-05-15T00:11:02.019Z,4.82
2023-05-15T00:13:28.880Z,4.53
2023-05-15T00:15:55.191Z,4.10
2023-05-15T00:18:21.594Z,4.22
2023-05-15T00:20:48.035Z,4.03
2023-05-15T00:23:14.395Z,4.20
2023-05-15T00:25:40.692Z,4.22
2023-05-15T00:28:07.044Z,4.30
2023-05-15T00:30:33.344Z,4.15
2023-05-15T00:32:59.712Z,4.05
2023-05-15T00:35:26.334Z,3.83
2023-05-15T00:37:52.974Z,4.30
2023-05-15T00:40:23.593Z,4.03
2023-05-15T00:42:51.064Z,4.25
2023-05-15T00:45:19.313Z,4.25
2023-05-15T00:47:45.898Z,4.05
2023-05-15T00:50:12.739Z,4.15
2023-05-15T00:52:39.052Z,4.55
2023-05-15T00:55:05.867Z,4.18
2023-05-15T00:57:33.422Z,4.22
2023-05-15T01:00:00.995Z,3.85
2023-05-15T01:02:27.517Z,4.00
2023-05-15T01:04:54.141Z,3.83
2023-05-15T01:07:20.569Z,4.22
2023-05-15T01:09:49.302Z,4.35
2023-05-15T01:12:16.779Z,4.18
2023-05-15T01:17:09.854Z,3.92
2023-05-15T01:19:36.421Z,4.22
2023-05-15T01:22:19.087Z,4.35
2023-05-15T01:25:13.103Z,3.88
2023-05-15T01:27:46.407Z,4.25
2023-05-15T01:30:22.140Z,4.53
2023-05-15T01:33:03.393Z,4.90
2023-05-15T01:35:38.580Z,4.40
2023-05-15T01:38:33.357Z,4.18
2023-05-15T01:41:14.366Z,4.55
2023-05-15T01:43:45.167Z,4.50
2023-05-15T01:46:17.167Z,4.93
2023-05-15T01:48:45.170Z,4.40
2023-05-15T01:51:13.236Z,4.75
2023-05-15T01:53:40.533Z,4.25
2023-05-15T01:56:08.484Z,4.57
2023-05-15T01:58:37.744Z,4.68
2023-05-15T02:01:05.785Z,4.70
2023-05-15T02:03:32.829Z,4.68
2023-05-15T02:05:59.905Z,4.43
2023-05-15T02:08:26.643Z,4.40
2023-05-15T02:10:53.288Z,4.05
2023-05-15T02:13:20.094Z,3.80
2023-05-15T02:15:46.566Z,4.32
2023-05-15T02:18:12.949Z,4.50
2023-05-15T02:20:39.338Z,4.20
2023-05-15T02:23:05.650Z,4.00
2023-05-15T02:25:41.374Z,4.10
2023-05-15T02:28:15.564Z,3.95
2023-05-15T02:31:08.048Z,4.05
2023-05-15T02:33:55.594Z,3.75
2023-05-15T02:36:29.626Z,4.47
2023-05-15T02:38:58.596Z,4.53
2023-05-15T02:41:25.441Z,4.32
2023-05-15T02:43:54.042Z,4.05
2023-05-15T02:46:21.653Z,4.30
2023-05-15T02:48:48.877Z,4.18
2023-05-15T02:51:15.304Z,4.28
2023-05-15T02:53:42.713Z,4.13
2023-05-15T02:56:09.739Z,3.92
2023-05-15T02:58:37.693Z,4.10
2023-05-15T03:01:04.033Z,4.03
2023-05-15T03:03:30.523Z,4.07
2023-05-15T03:05:56.891Z,4.45
2023-05-15T03:08:23.168Z,4.07
2023-05-15T03:10:49.460Z,3.97
2023-05-15T03:13:15.779Z,4.20
2023-05-15T03:15:43.997Z,4.13
2023-05-15T03:18:10.501Z,3.70
2023-05-15T03:20:36.849Z,4.05
2023-05-15T03:23:03.134Z,4.20
2023-05-15T03:25:29.495Z,4.75
2023-05-15T03:27:55.770Z,4.35
2023-05-15T03:30:22.040Z,3.80
2023-05-15T03:32:48.477Z,3.90
2023-05-15T03:35:14.967Z,4.13
2023-05-15T03:37:41.274Z,3.80
2023-05-15T03:40:08.376Z,3.63
2023-05-15T03:42:34.729Z,4.20
2023-05-15T03:45:01.284Z,3.72
2023-05-15T03:47:27.625Z,4.15
2023-05-15T03:49:53.921Z,3.78
2023-05-15T03:52:20.211Z,3.58
2023-05-15T03:54:46.684Z,3.67
2023-05-15T03:57:13.036Z,4.05
2023-05-15T03:59:39.470Z,4.05
2023-05-15T04:02:05.920Z,4.20
2023-05-15T04:04:32.641Z,3.95
2023-05-15T04:06:59.218Z,4.13
2023-05-15T04:09:25.703Z,4.13
2023-05-15T04:11:51.997Z,4.63
2023-05-15T04:14:18.356Z,3.88
2023-05-15T04:16:44.692Z,4.03
2023-05-15T04:19:11.151Z,4.20
2023-05-15T04:21:37.629Z,4.03
2023-05-15T04:24:04.129Z,4.07
2023-05-15T04:26:30.467Z,3.65
2023-05-15T04:31:29.437Z,4.47
2023-05-15T04:33:55.757Z,4.22
2023-05-15T04:36:22.218Z,4.05
2023-05-15T04:38:48.529Z,3.78
2023-05-15T04:41:14.943Z,4.00
2023-05-15T04:43:41.408Z,3.45
2023-05-15T04:46:07.887Z,4.53
2023-05-15T04:48:34.224Z,4.18
2023-05-15T04:51:00.563Z,4.03
2023-05-15T04:53:27.077Z,3.92
2023-05-15T04:55:53.376Z,3.90
2023-05-15T04:58:19.691Z,4.18
2023-05-15T05:00:46.074Z,4.10
2023-05-15T05:03:12.426Z,4.05
2023-05-15T05:05:38.821Z,3.95
2023-05-15T05:08:05.194Z,4.13
2023-05-15T05:10:31.518Z,4.15
2023-05-15T05:12:57.886Z,4.28
2023-05-15T05:15:24.394Z,4.22
2023-05-15T05:17:51.068Z,3.90
2023-05-15T05:20:17.513Z,4.75
2023-05-15T05:22:43.966Z,5.07
2023-05-15T05:25:10.538Z,4.95
2023-05-15T05:27:36.818Z,5.13
2023-05-15T05:30:03.425Z,5.38
2023-05-15T05:32:29.844Z,5.13
2023-05-15T05:34:56.171Z,4.93
2023-05-15T05:37:22.446Z,4.88
2023-05-15T05:39:48.875Z,5.65
2023-05-15T05:42:15.170Z,6.10
2023-05-15T05:44:41.467Z,5.57
2023-05-15T05:47:07.943Z,5.82
2023-05-15T05:49:34.432Z,5.50
2023-05-15T05:52:08.023Z,5.18
2023-05-15T05:54:34.324Z,5.43
2023-05-15T05:57:00.858Z,5.20
2023-05-15T05:59:27.183Z,5.40
2023-05-15T06:01:53.591Z,5.43
2023-05-15T06:04:20.018Z,5.00
2023-05-15T06:06:46.413Z,4.93
2023-05-15T06:09:12.724Z,4.97
2023-05-15T06:11:38.991Z,5.10
2023-05-15T06:14:05.341Z,5.18
2023-05-15T06:16:31.699Z,6.03
2023-05-15T06:18:58.125Z,6.00
2023-05-15T06:21:24.537Z,5.30
2023-05-15T06:23:50.831Z,5.25
2023-05-15T06:26:17.173Z,5.00
2023-05-15T06:28:43.571Z,5.15
2023-05-15T06:31:10.248Z,5.13
2023-05-15T06:33:36.603Z,5.55
2023-05-15T06:36:02.895Z,5.88
2023-05-15T06:38:29.252Z,6.15
2023-05-15T06:40:55.532Z,6.57
2023-05-15T06:43:21.819Z,6.15
2023-05-15T06:45:49.391Z,5.78
2023-05-15T06:48:15.761Z,6.63
2023-05-15T06:50:42.217Z,5.38
2023-05-15T06:53:08.502Z,5.93
2023-05-15T06:55:34.828Z,6.00
2023-05-15T06:58:01.151Z,5.95
2023-05-15T07:00:27.646Z,6.15
2023-05-15T07:02:54.027Z,5.97
2023-05-15T07:05:20.350Z,5.40
2023-05-15T07:07:46.632Z,5.45
2023-05-15T07:10:12.953Z,6.00
2023-05-15T07:12:39.351Z,5.35
2023-05-15T07:15:06.208Z,5.13
2023-05-15T07:17:33.857Z,5.28
2023-05-15T07:20:00.226Z,5.35
2023-05-15T07:22:27.601Z,5.95
2023-05-15T07:24:53.900Z,5.13
2023-05-15T07:27:20.195Z,5.43
2023-05-15T07:29:46.605Z,5.18
2023-05-15T07:32:12.900Z,5.55
2023-05-15T07:34:39.207Z,5.68
2023-05-15T07:37:05.639Z,5.47
2023-05-15T07:39:31.963Z,4.93
2023-05-15T07:41:58.351Z,5.28
2023-05-15T07:44:24.650Z,5.75
2023-05-15T07:46:51.050Z,4.78
2023-05-15T07:49:17.346Z,5.05
2023-05-15T07:51:43.723Z,5.18
2023-05-15T07:54:10.022Z,5.10
2023-05-15T07:56:36.314Z,5.28
2023-05-15T07:59:02.780Z,5.18
2023-05-15T08:01:30.648Z,5.00
2023-05-15T08:03:58.255Z,4.50
2023-05-15T08:06:24.765Z,4.70
2023-05-15T08:08:51.043Z,4.47
2023-05-15T08:11:18.422Z,4.53
2023-05-15T08:13:44.734Z,4.03
2023-05-15T08:16:11.284Z,4.78
2023-05-15T08:18:37.731Z,4.72
2023-05-15T08:21:04.763Z,5.15
2023-05-15T08:23:31.348Z,4.90
2023-05-15T08:25:57.632Z,4.70
2023-05-15T08:28:23.927Z,4.75
2023-05-15T08:30:50.349Z,4.78
2023-05-15T08:33:16.699Z,4.05
2023-05-15T08:35:43.034Z,4.43
2023-05-15T08:38:09.352Z,4.43
2023-05-15T08:40:39.445Z,4.20
2023-05-15T08:43:12.115Z,3.60
2023-05-15T08:45:38.608Z,3.78
2023-05-15T08:48:11.155Z,4.70
2023-05-15T08:50:39.355Z,5.00
2023-05-15T08:53:05.811Z,4.30
2023-05-15T08:55:32.501Z,4.68
2023-05-15T08:57:59.898Z,4.70
2023-05-15T09:00:26.417Z,4.28
2023-05-15T09:02:54.531Z,4.32
2023-05-15T09:05:21.063Z,4.10
2023-05-15T09:07:47.887Z,4.43
2023-05-15T09:10:14.496Z,4.00
2023-05-15T09:12:43.229Z,4.50
2023-05-15T09:15:14.385Z,4.38
2023-05-15T09:17:40.750Z,4.13
2023-05-15T09:20:07.636Z,3.90
2023-05-15T09:22:36.100Z,4.40
2023-05-15T09:25:03.605Z,4.60
2023-05-15T09:27:30.530Z,4.00
2023-05-15T09:30:08.383Z,3.95
2023-05-15T09:32:34.855Z,4.18
2023-05-15T09:35:01.199Z,3.88
2023-05-15T09:37:32.390Z,3.92
2023-05-15T09:40:09.108Z,3.72
2023-05-15T09:42:35.582Z,3.97
2023-05-15T09:45:02.854Z,3.63
2023-05-15T09:47:29.481Z,4.00
2023-05-15T09:49:56.080Z,4.30
2023-05-15T09:52:22.485Z,3.95
2023-05-15T09:54:50.578Z,3.47
2023-05-15T09:57:21.875Z,3.50
2023-05-15T09:59:49.236Z,3.47
2023-05-15T10:02:26.445Z,4.20
2023-05-15T10:04:57.061Z,4.50
2023-05-15T10:07:34.195Z,4.03
2023-05-15T10:10:01.700Z,3.50
2023-05-15T10:12:29.312Z,3.75
2023-05-15T10:14:56.966Z,3.70
2023-05-15T10:17:23.441Z,3.15
2023-05-15T10:19:57.757Z,4.30
2023-05-15T10:22:29.633Z,2.67
2023-05-15T10:25:03.617Z,2.70
2023-05-15T10:27:31.264Z,2.10
2023-05-15T10:29:58.565Z,2.20
2023-05-15T10:32:26.233Z,2.20
2023-05-15T10:34:54.204Z,1.75
2023-05-15T10:37:21.188Z,2.10
2023-05-15T10:42:15.018Z,2.20
2023-05-15T10:44:41.527Z,2.30
2023-05-15T10:47:09.169Z,2.83
2023-05-15T10:49:35.774Z,2.88
2023-05-15T10:52:02.407Z,2.75
2023-05-15T10:54:29.629Z,2.78
2023-05-15T10:56:56.855Z,2.70
2023-05-15T10:59:31.413Z,2.40
2023-05-15T11:02:17.802Z,2.60
2023-05-15T11:04:44.342Z,2.60
2023-05-15T11:07:16.193Z,2.72
2023-05-15T11:09:42.572Z,3.00
2023-05-15T11:12:12.422Z,2.80
2023-05-15T11:14:52.067Z,2.80
2023-05-15T11:17:18.414Z,2.70
2023-05-15T11:19:50.856Z,3.63
2023-05-15T11:22:18.792Z,4.30
2023-05-15T11:25:00.387Z,4.07
2023-05-15T11:27:32.315Z,4.57
2023-05-15T11:30:05.491Z,4.10
2023-05-15T11:35:34.580Z,4.43
2023-05-15T11:38:10.107Z,4.38
2023-05-15T11:40:59.951Z,4.07
2023-05-15T11:43:28.498Z,4.43
2023-05-15T11:46:04.028Z,4.30
2023-05-15T11:48:35.311Z,4.20
2023-05-15T11:51:02.378Z,3.90
2023-05-15T11:55:55.946Z,4.15
2023-05-15T11:58:23.811Z,4.20
2023-05-15T12:00:51.041Z,4.10
2023-05-15T12:03:23.392Z,4.57
2023-05-15T12:05:59.029Z,4.18
2023-05-15T12:08:26.873Z,4.30
2023-05-15T12:10:53.299Z,4.30
2023-05-15T12:13:21.154Z,5.03
2023-05-15T12:15:47.515Z,4.22
2023-05-15T12:18:13.958Z,3.90
2023-05-15T12:20:41.379Z,4.65
2023-05-15T12:23:08.233Z,4.20
2023-05-15T12:25:36.528Z,4.30
2023-05-15T12:28:04.818Z,4.00
2023-05-15T12:30:35.164Z,4.40
2023-05-15T12:33:05.630Z,4.28
2023-05-15T12:35:42.748Z,4.30
2023-05-15T12:38:09.265Z,4.63
2023-05-15T12:40:36.824Z,4.63
2023-05-15T12:43:07.539Z,4.97
2023-05-15T12:45:34.315Z,4.53
2023-05-15T12:48:00.800Z,4.70
2023-05-15T12:50:27.706Z,4.50
2023-05-15T12:52:56.099Z,4.63
2023-05-15T12:55:27.484Z,4.85
2023-05-15T12:57:58.703Z,4.53
2023-05-15T13:00:25.831Z,4.35
2023-05-15T13:02:54.578Z,4.80
2023-05-15T13:05:23.533Z,4.53
2023-05-15T13:07:50.385Z,4.18
2023-05-15T13:10:16.765Z,4.15
2023-05-15T13:12:45.274Z,4.25
2023-05-15T13:15:27.990Z,4.32
2023-05-15T13:18:07.871Z,4.43
2023-05-15T13:20:37.342Z,4.40
2023-05-15T13:23:04.133Z,4.43
2023-05-15T13:25:32.155Z,4.00
2023-05-15T13:28:01.089Z,4.68
2023-05-15T13:30:30.850Z,4.15
2023-05-15T13:32:57.456Z,3.92
2023-05-15T13:35:24.122Z,4.35
2023-05-15T13:37:50.588Z,4.65
2023-05-15T13:40:17.303Z,4.30
2023-05-15T13:42:44.203Z,4.25
2023-05-15T13:45:12.374Z,4.10
2023-05-15T13:47:39.133Z,3.88
2023-05-15T13:50:07.681Z,4.78
2023-05-15T13:52:33.997Z,4.20
2023-05-15T13:55:00.375Z,4.40
2023-05-15T13:57:26.840Z,4.47
2023-05-15T13:59:53.200Z,4.53
2023-05-15T14:02:19.533Z,4.55
2023-05-15T14:04:46.662Z,4.18
2023-05-15T14:07:12.995Z,4.18
2023-05-15T14:09:39.435Z,4.35
2023-05-15T14:12:05.821Z,4.57
2023-05-15T14:14:32.223Z,4.30
2023-05-15T14:16:58.615Z,4.40
2023-05-15T14:19:25.148Z,4.50
2023-05-15T14:21:51.447Z,4.50
2023-05-15T14:24:17.798Z,4.40
2023-05-15T14:26:44.425Z,4.68
2023-05-15T14:29:11.700Z,5.07
2023-05-15T14:31:38.138Z,5.03
2023-05-15T14:34:04.485Z,5.07
2023-05-15T14:36:30.842Z,4.75
2023-05-15T14:38:59.004Z,4.78
2023-05-15T14:41:27.681Z,4.70
2023-05-15T14:43:53.963Z,5.05
2023-05-15T14:46:20.265Z,5.20
2023-05-15T14:48:46.694Z,4.70
2023-05-15T14:51:13.020Z,4.75
2023-05-15T14:53:39.343Z,4.60
2023-05-15T14:56:05.902Z,4.50
2023-05-15T14:58:32.355Z,4.20
2023-05-15T15:00:58.763Z,4.60
2023-05-15T15:03:27.619Z,5.03
2023-05-15T15:05:54.990Z,5.00
2023-05-15T15:08:21.336Z,4.82
2023-05-15T15:10:47.664Z,4.40
2023-05-15T15:13:14.050Z,4.75
2023-05-15T15:15:40.539Z,4.68
2023-05-15T15:18:07.180Z,4.60
2023-05-15T15:20:33.810Z,4.50
2023-05-15T15:23:00.212Z,4.90
2023-05-15T15:25:26.587Z,5.78
2023-05-15T15:27:52.984Z,4.53
2023-05-15T15:30:19.435Z,4.80
2023-05-15T15:32:45.895Z,3.92
2023-05-15T15:35:12.516Z,4.72
2023-05-15T15:37:38.830Z,4.38
2023-05-15T15:40:07.225Z,4.25
2023-05-15T15:42:34.748Z,4.43
2023-05-15T15:45:01.978Z,4.07
2023-05-15T15:47:28.712Z,4.18
2023-05-15T15:49:55.191Z,4.30
2023-05-15T15:52:21.583Z,4.60
2023-05-15T15:54:48.038Z,4.70
2023-05-15T15:57:15.694Z,4.47
2023-05-15T15:59:42.329Z,4.60
2023-05-15T16:02:09.461Z,4.80
2023-05-15T16:04:36.098Z,5.00
2023-05-15T16:07:03.968Z,5.07
2023-05-15T16:09:30.671Z,4.85
2023-05-15T16:11:57.748Z,5.43
2023-05-15T16:16:50.789Z,5.25
2023-05-15T16:19:17.318Z,5.20
2023-05-15T16:21:43.854Z,5.03
2023-05-15T16:24:10.203Z,5.05
2023-05-15T16:26:38.125Z,5.75
2023-05-15T16:29:04.689Z,5.20
2023-05-15T16:31:31.751Z,4.95
2023-05-15T16:36:26.591Z,4.70
2023-05-15T16:38:53.937Z,5.03
2023-05-15T16:41:21.048Z,4.85
2023-05-15T16:46:13.924Z,5.15
2023-05-15T16:48:40.319Z,5.13
2023-05-15T16:51:06.651Z,4.88
2023-05-15T16:53:32.989Z,4.82
2023-05-15T16:55:59.333Z,5.15
2023-05-15T16:58:25.613Z,4.38
2023-05-15T17:00:52.089Z,4.60
2023-05-15T17:03:18.433Z,4.35
2023-05-15T17:05:45.312Z,4.55
2023-05-15T17:08:11.816Z,3.45
2023-05-15T17:10:38.547Z,3.70
2023-05-15T17:13:04.907Z,3.92
2023-05-15T17:15:31.251Z,3.50
2023-05-15T17:17:57.735Z,3.92
2023-05-15T17:20:24.052Z,3.65
2023-05-15T17:22:50.383Z,3.13
2023-05-15T17:25:16.854Z,3.63
2023-05-15T17:27:43.136Z,3.63
2023-05-15T17:30:11.390Z,3.40
2023-05-15T17:32:38.791Z,3.80
2023-05-15T17:35:05.854Z,3.50
2023-05-15T17:37:32.351Z,3.83
2023-05-15T17:39:58.672Z,4.50
2023-05-15T17:42:24.976Z,4.43
2023-05-15T17:44:51.550Z,4.38
2023-05-15T17:47:18.056Z,4.45
2023-05-15T17:49:44.429Z,4.43
2023-05-15T17:52:10.752Z,4.18
2023-05-15T17:54:37.335Z,4.55
2023-05-15T17:57:03.877Z,4.60
2023-05-15T17:59:30.207Z,4.90
2023-05-15T18:01:57.009Z,5.13
2023-05-15T18:04:23.498Z,4.63
2023-05-15T18:06:50.644Z,4.90
2023-05-15T18:09:17.089Z,4.35
2023-05-15T18:11:43.375Z,4.78
2023-05-15T18:14:09.689Z,5.35
2023-05-15T18:16:36.095Z,4.88
2023-05-15T18:19:02.434Z,4.50
2023-05-15T18:21:28.820Z,4.88
2023-05-15T18:23:55.262Z,4.00
2023-05-15T18:26:21.802Z,3.58
2023-05-15T18:28:48.109Z,3.83
2023-05-15T18:31:14.491Z,3.50
2023-05-15T18:33:40.983Z,3.83
2023-05-15T18:36:07.576Z,3.45
2023-05-15T18:38:34.258Z,3.95
2023-05-15T18:41:00.632Z,3.60
2023-05-15T18:43:26.986Z,3.83
2023-05-15T18:45:54.109Z,3.58
2023-05-15T18:48:20.402Z,2.92
2023-05-15T18:50:46.846Z,3.28
2023-05-15T18:53:13.265Z,2.85
2023-05-15T18:55:39.540Z,3.30
2023-05-15T18:58:05.934Z,2.80
2023-05-15T19:03:01.732Z,3.20
2023-05-15T19:05:28.249Z,3.40
2023-05-15T19:07:54.588Z,3.35
2023-05-15T19:10:20.902Z,3.50
2023-05-15T19:12:47.194Z,3.50
2023-05-15T19:15:13.764Z,3.70
2023-05-15T19:17:40.082Z,3.90
2023-05-15T19:20:07.345Z,3.13
2023-05-15T19:22:33.747Z,3.45
2023-05-15T19:25:00.186Z,3.45
2023-05-15T19:27:26.499Z,3.42
2023-05-15T19:29:52.921Z,2.65
2023-05-15T19:32:19.330Z,2.95
2023-05-15T19:34:45.723Z,2.92
2023-05-15T19:37:12.159Z,3.10
2023-05-15T19:39:38.450Z,3.08
2023-05-15T19:42:04.858Z,2.90
2023-05-15T19:44:31.356Z,2.50
2023-05-15T19:46:57.755Z,2.80
2023-05-15T19:49:24.044Z,2.63
2023-05-15T19:51:50.413Z,2.78
2023-05-15T19:54:16.721Z,2.60
2023-05-15T19:56:43.108Z,3.20
2023-05-15T19:59:09.536Z,2.80
2023-05-15T20:01:36.228Z,2.95
2023-05-15T20:04:02.748Z,3.10
2023-05-15T20:06:29.157Z,3.17
2023-05-15T20:08:55.563Z,3.22
2023-05-15T20:11:21.900Z,3.55
2023-05-15T20:13:48.339Z,3.22
2023-05-15T20:16:14.708Z,2.80
2023-05-15T20:18:41.074Z,3.30
2023-05-15T20:21:07.572Z,2.90
2023-05-15T20:23:33.887Z,2.97
2023-05-15T20:26:00.179Z,3.05
2023-05-15T20:28:27.937Z,3.05
2023-05-15T20:30:56.815Z,2.75
2023-05-15T20:33:23.233Z,3.05
2023-05-15T20:35:49.663Z,3.00
2023-05-15T20:38:16.064Z,3.50
2023-05-15T20:40:42.440Z,3.67
2023-05-15T20:43:08.711Z,3.35
2023-05-15T20:45:35.093Z,3.47
2023-05-15T20:48:01.631Z,3.35
2023-05-15T20:50:28.321Z,3.92
2023-05-15T20:52:56.016Z,3.10
2023-05-15T20:55:22.468Z,3.28
2023-05-15T20:57:49.756Z,3.65
2023-05-15T21:02:44.549Z,3.53
2023-05-15T21:05:11.005Z,3.83
2023-05-15T21:07:37.353Z,4.07
2023-05-15T21:10:04.349Z,3.80
2023-05-15T21:12:30.637Z,4.13
2023-05-15T21:14:56.938Z,4.10
2023-05-15T21:17:23.407Z,4.03
2023-05-15T21:19:49.731Z,4.55
2023-05-15T21:22:16.075Z,4.35
2023-05-15T21:24:42.521Z,4.32
2023-05-15T21:27:08.876Z,4.30
2023-05-15T21:29:35.274Z,4.35
2023-05-15T21:32:01.569Z,4.20
2023-05-15T21:34:27.913Z,4.40
2023-05-15T21:36:54.382Z,4.63
2023-05-15T21:39:20.831Z,4.35
2023-05-15T21:41:47.139Z,4.22
2023-05-15T21:44:13.468Z,3.90
2023-05-15T21:46:39.811Z,4.30
2023-05-15T21:49:06.162Z,4.13
2023-05-15T21:51:32.554Z,4.30
2023-05-15T21:53:58.897Z,4.13
2023-05-15T21:56:25.211Z,4.30
2023-05-15T21:58:53.199Z,4.60
2023-05-15T22:01:19.603Z,4.13
2023-05-15T22:03:46.009Z,4.15
2023-05-15T22:06:12.435Z,4.25
2023-05-15T22:08:38.801Z,4.05
2023-05-15T22:11:05.470Z,4.60
2023-05-15T22:13:31.777Z,4.65
2023-05-15T22:15:58.289Z,4.47
2023-05-15T22:18:24.593Z,4.55
2023-05-15T22:20:50.891Z,4.35
2023-05-15T22:23:17.305Z,4.55
2023-05-15T22:25:43.601Z,4.80
2023-05-15T22:28:09.934Z,4.93
2023-05-15T22:30:36.336Z,4.70
2023-05-15T22:33:02.664Z,5.35
2023-05-15T22:35:29.277Z,4.65
2023-05-15T22:37:55.875Z,4.75
2023-05-15T22:40:22.166Z,4.82
2023-05-15T22:42:48.616Z,4.60
2023-05-15T22:45:16.536Z,5.20
2023-05-15T22:47:43.617Z,4.90
2023-05-15T22:50:10.301Z,5.07
2023-05-15T22:52:36.690Z,5.03
2023-05-15T22:55:03.055Z,5.00
2023-05-15T22:57:29.390Z,5.22
2023-05-15T22:59:55.780Z,5.35
2023-05-15T23:02:22.282Z,5.45
2023-05-15T23:04:48.624Z,4.88
2023-05-15T23:07:14.911Z,5.60
2023-05-15T23:09:41.263Z,5.13
2023-05-15T23:12:07.818Z,6.00
2023-05-15T23:14:34.119Z,5.65
2023-05-15T23:17:00.575Z,5.25
2023-05-15T23:19:27.010Z,5.53
2023-05-15T23:21:53.411Z,5.47
2023-05-15T23:24:19.728Z,5.35
2023-05-15T23:26:46.034Z,5.35
2023-05-15T23:29:12.602Z,5.68
2023-05-15T23:31:38.939Z,5.38
2023-05-15T23:34:05.328Z,5.57
2023-05-15T23:36:31.733Z,6.07
2023-05-15T23:38:58.049Z,5.22
2023-05-15T23:41:24.606Z,5.57
2023-05-15T23:43:50.942Z,5.80
2023-05-15T23:46:17.753Z,6.22
2023-05-15T23:48:44.237Z,6.28
2023-05-15T23:51:10.527Z,6.50
2023-05-15T23:53:36.829Z,5.32
2023-05-15T23:56:03.264Z,5.88
2023-05-15T23:58:29.688Z,6.03
